createdAt,value
2023-01-30T00:01:26.799Z,14.10
2023-01-30T00:03:55.186Z,14.23
2023-01-30T00:06:24.151Z,14.33
2023-01-30T00:08:53.003Z,14.23
2023-01-30T00:11:22.769Z,13.73
2023-01-30T00:13:52.903Z,13.30
2023-01-30T00:16:21.187Z,14.17
2023-01-30T00:18:49.444Z,14.33
2023-01-30T00:21:17.926Z,14.13
2023-01-30T00:23:46.853Z,13.57
2023-01-30T00:26:15.228Z,14.37
2023-01-30T00:28:43.525Z,14.03
2023-01-30T00:31:13.214Z,13.33
2023-01-30T00:33:41.556Z,13.50
2023-01-30T00:36:11.774Z,12.33
2023-01-30T00:38:40.231Z,13.10
2023-01-30T00:41:10.736Z,12.53
2023-01-30T00:43:56.345Z,12.50
2023-01-30T00:46:48.076Z,12.40
2023-01-30T00:49:16.482Z,13.03
2023-01-30T00:51:44.766Z,13.20
2023-01-30T00:54:13.027Z,12.93
2023-01-30T00:56:41.305Z,13.00
2023-01-30T00:59:09.596Z,13.37
2023-01-30T01:01:39.273Z,12.00
2023-01-30T01:04:08.814Z,13.27
2023-01-30T01:06:37.506Z,13.50
2023-01-30T01:09:06.416Z,13.07
2023-01-30T01:11:35.495Z,13.53
2023-01-30T01:14:06.817Z,14.00
2023-01-30T01:16:36.533Z,14.13
2023-01-30T01:19:06.570Z,13.70
2023-01-30T01:21:34.880Z,13.47
2023-01-30T01:24:03.146Z,14.03
2023-01-30T01:26:31.444Z,13.63
2023-01-30T01:29:00.544Z,13.97
2023-01-30T01:31:29.102Z,13.50
2023-01-30T01:33:57.939Z,13.07
2023-01-30T01:36:53.176Z,14.40
2023-01-30T01:39:15.762Z,12.83
2023-01-30T01:41:43.052Z,12.73
2023-01-30T01:44:13.485Z,13.77
2023-01-30T01:46:46.453Z,13.90
2023-01-30T01:49:20.251Z,14.20
2023-01-30T01:51:56.813Z,13.00
2023-01-30T01:54:32.069Z,13.03
2023-01-30T01:57:04.236Z,13.47
2023-01-30T01:59:39.303Z,14.90
2023-01-30T02:02:12.318Z,12.87
2023-01-30T02:05:03.522Z,13.47
2023-01-30T02:07:39.448Z,12.70
2023-01-30T02:10:11.192Z,12.53
2023-01-30T02:12:40.507Z,12.90
2023-01-30T02:15:10.200Z,13.53
2023-01-30T02:17:38.506Z,12.97
2023-01-30T02:20:20.491Z,14.47
2023-01-30T02:23:36.505Z,13.80
2023-01-30T02:27:00.349Z,14.17
2023-01-30T02:30:21.093Z,13.73
2023-01-30T02:33:02.437Z,12.93
2023-01-30T02:35:42.924Z,13.97
2023-01-30T02:38:30.153Z,12.90
2023-01-30T02:41:10.911Z,13.67
2023-01-30T02:43:48.939Z,13.70
2023-01-30T02:46:23.525Z,12.63
2023-01-30T02:48:58.855Z,13.20
2023-01-30T02:51:31.956Z,13.30
2023-01-30T02:54:01.161Z,12.90
2023-01-30T02:56:29.537Z,13.77
2023-01-30T02:59:02.041Z,13.87
2023-01-30T03:02:00.793Z,12.83
2023-01-30T03:04:50.338Z,13.27
2023-01-30T03:07:34.920Z,13.83
2023-01-30T03:10:09.265Z,13.20
2023-01-30T03:12:50.087Z,12.87
2023-01-30T03:15:27.738Z,13.73
2023-01-30T03:17:57.757Z,13.20
2023-01-30T03:20:27.390Z,14.13
2023-01-30T03:22:56.234Z,12.87
2023-01-30T03:25:27.649Z,13.00
2023-01-30T03:27:57.281Z,13.27
2023-01-30T03:30:27.612Z,13.13
2023-01-30T03:32:55.885Z,13.40
2023-01-30T03:35:24.389Z,13.30
2023-01-30T03:37:54.233Z,14.10
2023-01-30T03:40:22.558Z,13.73
2023-01-30T03:42:50.831Z,13.90
2023-01-30T03:45:19.327Z,14.73
2023-01-30T03:47:47.904Z,14.60
2023-01-30T03:50:16.595Z,13.27
2023-01-30T03:52:44.896Z,14.43
2023-01-30T03:55:14.773Z,14.57
2023-01-30T03:57:43.117Z,14.97
2023-01-30T04:00:12.761Z,13.87
2023-01-30T04:02:41.107Z,13.70
2023-01-30T04:05:09.660Z,13.87
2023-01-30T04:07:37.905Z,14.97
2023-01-30T04:10:07.571Z,14.83
2023-01-30T04:12:37.224Z,14.33
2023-01-30T04:15:06.521Z,13.83
2023-01-30T04:17:34.798Z,14.93
2023-01-30T04:20:03.112Z,14.00
2023-01-30T04:22:31.443Z,14.73
2023-01-30T04:24:59.747Z,14.70
2023-01-30T04:27:28.034Z,14.27
2023-01-30T04:29:57.704Z,15.83
2023-01-30T04:32:27.565Z,14.97
2023-01-30T04:34:55.879Z,14.23
2023-01-30T04:37:24.120Z,15.40
2023-01-30T04:39:52.404Z,15.30
2023-01-30T04:42:20.693Z,15.07
2023-01-30T04:44:49.030Z,16.07
2023-01-30T04:47:19.029Z,14.77
2023-01-30T04:49:47.295Z,15.60
2023-01-30T04:52:15.556Z,12.97
2023-01-30T04:54:43.875Z,15.90
2023-01-30T04:57:12.183Z,14.63
2023-01-30T04:59:40.775Z,15.17
2023-01-30T05:02:09.117Z,15.10
2023-01-30T05:04:38.809Z,15.47
2023-01-30T05:07:07.078Z,14.00
2023-01-30T05:09:35.317Z,14.07
2023-01-30T05:12:03.551Z,15.70
2023-01-30T05:14:31.823Z,15.23
2023-01-30T05:17:00.153Z,15.20
2023-01-30T05:19:28.521Z,15.03
2023-01-30T05:21:58.165Z,14.97
2023-01-30T05:24:26.483Z,14.80
2023-01-30T05:26:54.695Z,14.90
2023-01-30T05:29:23.127Z,14.40
2023-01-30T05:31:51.428Z,14.70
2023-01-30T05:34:19.799Z,15.80
2023-01-30T05:36:48.028Z,15.40
2023-01-30T05:39:18.923Z,16.00
2023-01-30T05:41:47.279Z,15.77
2023-01-30T05:44:15.552Z,15.93
2023-01-30T05:46:43.882Z,16.40
2023-01-30T05:49:12.111Z,15.70
2023-01-30T05:51:40.385Z,15.17
2023-01-30T05:54:09.077Z,15.83
2023-01-30T05:56:38.687Z,14.77
2023-01-30T05:59:07.810Z,16.47
2023-01-30T06:01:36.073Z,15.87
2023-01-30T06:04:04.609Z,15.90
2023-01-30T06:06:32.832Z,15.40
2023-01-30T06:09:01.090Z,15.13
2023-01-30T06:11:29.529Z,16.27
2023-01-30T06:13:59.135Z,16.27
2023-01-30T06:16:27.409Z,15.77
2023-01-30T06:18:55.683Z,15.47
2023-01-30T06:21:23.964Z,16.93
2023-01-30T06:23:52.216Z,14.83
2023-01-30T06:26:20.496Z,15.17
2023-01-30T06:28:49.835Z,17.37
2023-01-30T06:31:19.484Z,18.37
2023-01-30T06:33:49.391Z,16.50
2023-01-30T06:36:17.655Z,15.07
2023-01-30T06:38:45.938Z,15.27
2023-01-30T06:41:14.184Z,14.57
2023-01-30T06:43:43.397Z,13.93
2023-01-30T06:46:11.742Z,14.50
2023-01-30T06:48:41.347Z,16.37
2023-01-30T06:51:09.629Z,14.73
2023-01-30T06:53:37.997Z,14.63
2023-01-30T06:56:06.792Z,15.43
2023-01-30T06:58:35.002Z,14.77
2023-01-30T07:01:03.397Z,15.00
2023-01-30T07:03:31.664Z,14.53
2023-01-30T07:06:01.327Z,15.10
2023-01-30T07:08:29.563Z,14.57
2023-01-30T07:10:57.828Z,14.70
2023-01-30T07:13:26.160Z,14.03
2023-01-30T07:15:54.476Z,16.13
2023-01-30T07:18:22.820Z,15.67
2023-01-30T07:20:51.447Z,14.60
2023-01-30T07:23:21.084Z,14.10
2023-01-30T07:25:49.380Z,16.43
2023-01-30T07:28:17.728Z,14.70
2023-01-30T07:30:46.052Z,15.73
2023-01-30T07:33:14.401Z,16.27
2023-01-30T07:35:42.638Z,15.40
2023-01-30T07:38:10.909Z,15.37
2023-01-30T07:40:40.803Z,15.43
2023-01-30T07:43:12.811Z,15.03
2023-01-30T07:45:43.445Z,14.27
2023-01-30T07:48:14.730Z,13.67
2023-01-30T07:50:43.344Z,13.40
2023-01-30T07:53:14.484Z,14.20
2023-01-30T07:55:44.263Z,13.13
2023-01-30T07:58:15.333Z,13.47
2023-01-30T08:00:43.774Z,14.73
2023-01-30T08:03:15.165Z,12.93
2023-01-30T08:05:44.073Z,13.13
2023-01-30T08:08:12.334Z,14.10
2023-01-30T08:10:40.690Z,14.80
2023-01-30T08:13:10.400Z,13.90
2023-01-30T08:15:38.701Z,13.10
2023-01-30T08:18:08.158Z,13.23
2023-01-30T08:20:37.279Z,13.37
2023-01-30T08:23:05.714Z,13.20
2023-01-30T08:25:35.416Z,13.53
2023-01-30T08:28:04.785Z,14.20
2023-01-30T08:30:34.520Z,12.33
2023-01-30T08:33:02.768Z,13.23
2023-01-30T08:35:31.016Z,12.73
2023-01-30T08:37:59.919Z,12.70
2023-01-30T08:40:28.481Z,12.90
2023-01-30T08:42:57.102Z,11.73
2023-01-30T08:45:25.441Z,12.37
2023-01-30T08:47:55.192Z,11.90
2023-01-30T08:50:23.473Z,11.93
2023-01-30T08:52:51.748Z,12.10
2023-01-30T08:55:20.911Z,12.23
2023-01-30T08:57:49.418Z,11.17
2023-01-30T09:00:19.278Z,12.77
2023-01-30T09:02:47.823Z,12.70
2023-01-30T09:05:17.822Z,12.03
2023-01-30T09:07:46.142Z,12.10
2023-01-30T09:10:14.436Z,11.80
2023-01-30T09:12:42.834Z,11.07
2023-01-30T09:15:12.273Z,11.37
2023-01-30T09:17:40.789Z,11.57
2023-01-30T09:20:11.924Z,12.03
2023-01-30T09:22:41.766Z,12.00
2023-01-30T09:25:11.010Z,11.40
2023-01-30T09:27:39.314Z,11.13
2023-01-30T09:30:09.681Z,11.20
2023-01-30T09:32:38.302Z,10.63
2023-01-30T09:35:08.504Z,11.07
2023-01-30T09:37:36.907Z,11.20
2023-01-30T09:40:08.683Z,11.57
2023-01-30T09:43:11.177Z,10.93
2023-01-30T09:45:53.915Z,10.37
2023-01-30T09:48:28.088Z,11.37
2023-01-30T09:51:38.833Z,10.10
2023-01-30T09:54:24.523Z,10.60
2023-01-30T09:57:21.078Z,8.63
2023-01-30T09:59:58.387Z,10.60
2023-01-30T10:02:45.992Z,8.60
2023-01-30T10:05:14.588Z,9.23
2023-01-30T10:08:16.891Z,9.20
2023-01-30T10:11:00.882Z,9.53
2023-01-30T10:13:57.414Z,8.97
2023-01-30T10:16:31.691Z,8.37
2023-01-30T10:19:35.990Z,8.67
2023-01-30T10:22:19.168Z,8.57
2023-01-30T10:24:58.741Z,8.17
2023-01-30T10:27:30.607Z,8.93
2023-01-30T10:30:04.714Z,8.23
2023-01-30T10:32:41.687Z,8.23
2023-01-30T10:35:19.427Z,7.90
2023-01-30T10:37:58.202Z,8.20
2023-01-30T10:40:33.727Z,7.67
2023-01-30T10:43:09.728Z,8.00
2023-01-30T10:45:48.826Z,7.83
2023-01-30T10:48:43.173Z,7.70
2023-01-30T10:51:29.136Z,7.17
2023-01-30T10:54:04.523Z,6.40
2023-01-30T10:56:43.586Z,7.40
2023-01-30T10:59:25.315Z,7.33
2023-01-30T11:02:02.501Z,6.17
2023-01-30T11:04:43.409Z,6.47
2023-01-30T11:07:13.782Z,7.07
2023-01-30T11:09:44.602Z,7.47
2023-01-30T11:12:13.894Z,6.70
2023-01-30T11:15:00.080Z,6.10
2023-01-30T11:17:37.168Z,6.97
2023-01-30T11:20:14.741Z,7.23
2023-01-30T11:22:52.390Z,6.80
2023-01-30T11:25:24.196Z,6.90
2023-01-30T11:27:58.744Z,7.73
2023-01-30T11:30:30.243Z,6.70
2023-01-30T11:33:14.743Z,7.70
2023-01-30T11:35:54.330Z,7.87
2023-01-30T11:38:26.048Z,7.07
2023-01-30T11:41:07.404Z,8.10
2023-01-30T11:43:39.498Z,7.37
2023-01-30T11:46:10.144Z,7.23
2023-01-30T11:49:05.556Z,7.70
2023-01-30T11:51:39.758Z,7.33
2023-01-30T11:54:14.336Z,6.90
2023-01-30T11:56:48.487Z,6.77
2023-01-30T11:59:26.699Z,7.23
2023-01-30T12:02:05.243Z,8.17
2023-01-30T12:04:35.230Z,8.03
2023-01-30T12:07:09.692Z,8.27
2023-01-30T12:09:41.037Z,8.23
2023-01-30T12:12:28.857Z,7.90
2023-01-30T12:15:08.397Z,7.40
2023-01-30T12:17:43.773Z,7.93
2023-01-30T12:20:23.621Z,8.97
2023-01-30T12:23:06.991Z,8.17
2023-01-30T12:25:42.878Z,6.70
2023-01-30T12:28:22.350Z,8.80
2023-01-30T12:30:56.477Z,8.40
2023-01-30T12:33:32.253Z,8.27
2023-01-30T12:36:15.130Z,9.20
2023-01-30T12:39:15.231Z,8.23
2023-01-30T12:42:20.158Z,6.80
2023-01-30T12:45:04.056Z,7.50
2023-01-30T12:47:52.421Z,7.60
2023-01-30T12:50:41.063Z,5.80
2023-01-30T12:53:32.633Z,5.63
2023-01-30T12:56:44.265Z,5.50
2023-01-30T12:59:22.979Z,6.00
2023-01-30T13:02:17.332Z,6.03
2023-01-30T13:05:04.638Z,5.63
2023-01-30T13:07:42.927Z,5.37
2023-01-30T13:10:20.973Z,5.47
2023-01-30T13:13:01.091Z,6.53
2023-01-30T13:15:37.984Z,7.27
2023-01-30T13:18:15.665Z,7.33
2023-01-30T13:20:56.060Z,5.97
2023-01-30T13:23:36.156Z,5.20
2023-01-30T13:26:09.282Z,5.00
2023-01-30T13:28:41.609Z,5.17
2023-01-30T13:31:13.902Z,5.23
2023-01-30T13:33:45.767Z,6.07
2023-01-30T13:36:19.131Z,5.57
2023-01-30T13:38:59.216Z,5.47
2023-01-30T13:41:33.935Z,6.13
2023-01-30T13:44:08.285Z,5.33
2023-01-30T13:46:40.038Z,5.93
2023-01-30T13:49:17.800Z,5.93
2023-01-30T13:51:50.906Z,6.20
2023-01-30T13:54:39.154Z,6.37
2023-01-30T13:57:23.175Z,5.53
2023-01-30T14:00:28.139Z,6.23
2023-01-30T14:03:32.767Z,6.53
2023-01-30T14:06:05.022Z,5.80
2023-01-30T14:08:41.105Z,6.57
2023-01-30T14:11:34.560Z,6.03
2023-01-30T14:14:20.976Z,6.70
2023-01-30T14:16:52.442Z,6.33
2023-01-30T14:19:30.800Z,5.70
2023-01-30T14:22:01.428Z,7.00
2023-01-30T14:24:31.608Z,5.97
2023-01-30T14:27:06.674Z,7.40
2023-01-30T14:29:57.553Z,6.53
2023-01-30T14:32:57.085Z,7.10
2023-01-30T14:35:28.222Z,7.17
2023-01-30T14:38:11.892Z,7.00
2023-01-30T14:41:05.690Z,7.47
2023-01-30T14:43:39.480Z,7.00
2023-01-30T14:46:55.102Z,6.80
2023-01-30T14:49:36.277Z,7.53
2023-01-30T14:52:05.643Z,6.90
2023-01-30T14:54:42.736Z,6.67
2023-01-30T14:57:24.949Z,6.77
2023-01-30T15:00:17.150Z,6.87
2023-01-30T15:02:53.056Z,6.00
2023-01-30T15:05:29.483Z,6.70
2023-01-30T15:08:06.604Z,6.20
2023-01-30T15:11:03.364Z,6.70
2023-01-30T15:13:53.560Z,6.33
2023-01-30T15:17:05.669Z,6.03
2023-01-30T15:19:57.151Z,6.20
2023-01-30T15:22:37.568Z,6.87
2023-01-30T15:25:39.263Z,6.20
2023-01-30T15:28:30.345Z,8.27
2023-01-30T15:31:10.339Z,9.07
2023-01-30T15:33:46.392Z,9.53
2023-01-30T15:36:38.877Z,8.93
2023-01-30T15:39:19.439Z,8.60
2023-01-30T15:41:47.800Z,9.20
2023-01-30T15:44:40.774Z,9.80
2023-01-30T15:47:31.252Z,8.10
2023-01-30T15:50:03.266Z,6.93
2023-01-30T15:52:44.406Z,7.23
2023-01-30T15:55:19.088Z,6.07
2023-01-30T15:57:52.711Z,6.40
2023-01-30T16:00:29.137Z,6.47
2023-01-30T16:02:58.824Z,6.60
2023-01-30T16:05:28.074Z,6.30
2023-01-30T16:07:59.997Z,5.90
2023-01-30T16:10:31.322Z,6.47
2023-01-30T16:13:04.339Z,6.93
2023-01-30T16:15:38.072Z,6.40
2023-01-30T16:18:21.620Z,6.03
2023-01-30T16:21:01.610Z,6.47
2023-01-30T16:23:36.685Z,6.43
2023-01-30T16:26:06.825Z,5.73
2023-01-30T16:28:35.349Z,5.13
2023-01-30T16:31:06.838Z,5.33
2023-01-30T16:33:37.105Z,5.60
2023-01-30T16:36:07.996Z,5.70
2023-01-30T16:38:43.189Z,5.53
2023-01-30T16:41:34.586Z,5.50
2023-01-30T16:44:18.527Z,5.37
2023-01-30T16:47:00.511Z,5.47
2023-01-30T16:49:48.791Z,5.57
2023-01-30T16:52:22.729Z,5.50
2023-01-30T16:54:55.064Z,5.83
2023-01-30T16:57:36.337Z,5.67
2023-01-30T17:00:20.843Z,5.67
2023-01-30T17:02:53.182Z,5.43
2023-01-30T17:05:24.075Z,5.30
2023-01-30T17:07:53.850Z,6.47
2023-01-30T17:10:55.523Z,5.83
2023-01-30T17:13:34.063Z,5.00
2023-01-30T17:16:34.441Z,5.00
2023-01-30T17:19:03.370Z,5.40
2023-01-30T17:21:45.159Z,6.10
2023-01-30T17:24:17.756Z,4.97
2023-01-30T17:26:50.576Z,4.87
2023-01-30T17:29:41.044Z,5.10
2023-01-30T17:32:13.192Z,5.10
2023-01-30T17:34:41.701Z,6.00
2023-01-30T17:37:15.804Z,5.50
2023-01-30T17:39:44.076Z,4.93
2023-01-30T17:42:15.256Z,5.03
2023-01-30T17:44:43.609Z,5.17
2023-01-30T17:47:13.231Z,5.30
2023-01-30T17:49:41.863Z,5.03
2023-01-30T17:52:10.450Z,5.37
2023-01-30T17:54:38.638Z,5.53
2023-01-30T17:57:09.731Z,5.33
2023-01-30T17:59:39.326Z,5.60
2023-01-30T18:02:10.768Z,6.40
2023-01-30T18:04:39.998Z,5.47
2023-01-30T18:07:14.208Z,5.50
2023-01-30T18:09:42.431Z,5.27
2023-01-30T18:12:10.697Z,6.93
2023-01-30T18:14:40.329Z,6.27
2023-01-30T18:17:08.661Z,5.40
2023-01-30T18:19:36.948Z,6.00
2023-01-30T18:22:05.207Z,5.73
2023-01-30T18:24:33.433Z,5.97
2023-01-30T18:27:02.031Z,5.73
2023-01-30T18:29:30.519Z,5.23
2023-01-30T18:32:04.984Z,6.30
2023-01-30T18:34:33.807Z,5.47
2023-01-30T18:37:02.062Z,6.03
2023-01-30T18:39:31.885Z,5.70
2023-01-30T18:42:02.098Z,6.17
2023-01-30T18:44:30.383Z,6.23
2023-01-30T18:47:00.090Z,6.53
2023-01-30T18:49:28.344Z,5.70
2023-01-30T18:51:56.611Z,7.30
2023-01-30T18:54:24.905Z,6.80
2023-01-30T18:56:53.152Z,6.03
2023-01-30T18:59:21.559Z,6.10
2023-01-30T19:01:49.961Z,5.93
2023-01-30T19:04:19.579Z,6.13
2023-01-30T19:06:47.947Z,6.40
2023-01-30T19:09:18.118Z,5.60
2023-01-30T19:12:03.708Z,6.17
2023-01-30T19:14:32.103Z,6.00
2023-01-30T19:17:00.332Z,6.00
2023-01-30T19:19:29.981Z,5.97
2023-01-30T19:21:58.200Z,5.03
2023-01-30T19:24:26.721Z,6.03
2023-01-30T19:26:55.061Z,5.70
2023-01-30T19:29:23.597Z,5.13
2023-01-30T19:31:51.889Z,5.67
2023-01-30T19:34:20.429Z,5.90
2023-01-30T19:36:50.070Z,5.87
2023-01-30T19:39:18.500Z,5.17
2023-01-30T19:41:46.825Z,5.60
2023-01-30T19:44:15.156Z,5.67
2023-01-30T19:46:43.936Z,5.67
2023-01-30T19:49:13.293Z,6.00
2023-01-30T19:51:41.844Z,6.07
2023-01-30T19:54:12.967Z,5.70
2023-01-30T19:56:42.581Z,6.40
2023-01-30T19:59:15.981Z,6.13
2023-01-30T20:01:44.450Z,5.30
2023-01-30T20:04:13.140Z,5.87
2023-01-30T20:06:44.755Z,4.77
2023-01-30T20:09:16.148Z,5.60
2023-01-30T20:11:44.733Z,6.83
2023-01-30T20:14:13.101Z,5.90
2023-01-30T20:16:41.941Z,5.80
2023-01-30T20:19:15.521Z,7.27
2023-01-30T20:21:44.573Z,6.17
2023-01-30T20:24:15.539Z,6.50
2023-01-30T20:26:48.250Z,6.73
2023-01-30T20:29:18.020Z,6.53
2023-01-30T20:31:46.639Z,5.80
2023-01-30T20:34:16.116Z,5.93
2023-01-30T20:36:44.441Z,5.73
2023-01-30T20:39:16.831Z,5.97
2023-01-30T20:41:45.223Z,5.77
2023-01-30T20:44:15.246Z,8.30
2023-01-30T20:46:45.972Z,9.03
2023-01-30T20:49:16.680Z,11.07
2023-01-30T20:51:46.677Z,6.97
2023-01-30T20:54:19.196Z,5.60
2023-01-30T20:56:50.042Z,5.33
2023-01-30T20:59:20.567Z,5.77
2023-01-30T21:01:48.839Z,4.73
2023-01-30T21:04:18.518Z,5.37
2023-01-30T21:06:47.381Z,5.40
2023-01-30T21:09:19.412Z,4.87
2023-01-30T21:11:48.783Z,4.77
2023-01-30T21:14:18.028Z,4.47
2023-01-30T21:16:46.804Z,4.60
2023-01-30T21:19:17.699Z,5.10
2023-01-30T21:21:50.776Z,4.67
2023-01-30T21:24:23.758Z,4.47
2023-01-30T21:26:52.842Z,4.73
2023-01-30T21:29:23.737Z,5.10
2023-01-30T21:31:52.418Z,4.70
2023-01-30T21:34:20.770Z,4.87
2023-01-30T21:37:09.778Z,4.33
2023-01-30T21:39:56.776Z,4.60
2023-01-30T21:42:42.653Z,4.83
2023-01-30T21:45:11.260Z,3.97
2023-01-30T21:47:39.921Z,4.67
2023-01-30T21:50:09.984Z,4.73
2023-01-30T21:52:38.914Z,4.40
2023-01-30T21:55:10.237Z,4.57
2023-01-30T21:57:38.981Z,4.40
2023-01-30T22:00:09.165Z,4.50
2023-01-30T22:02:37.528Z,4.53
2023-01-30T22:05:06.748Z,4.30
2023-01-30T22:07:35.232Z,4.47
2023-01-30T22:10:03.508Z,4.67
2023-01-30T22:12:33.226Z,4.33
2023-01-30T22:15:01.599Z,4.53
2023-01-30T22:17:29.974Z,4.23
2023-01-30T22:19:58.267Z,4.43
2023-01-30T22:22:26.751Z,4.30
2023-01-30T22:24:55.000Z,4.10
2023-01-30T22:27:23.287Z,4.70
2023-01-30T22:29:52.905Z,4.33
2023-01-30T22:32:21.176Z,4.80
2023-01-30T22:34:49.397Z,4.17
2023-01-30T22:37:17.712Z,5.03
2023-01-30T22:39:46.027Z,4.60
2023-01-30T22:42:14.483Z,4.20
2023-01-30T22:44:42.714Z,4.80
2023-01-30T22:47:12.386Z,4.60
2023-01-30T22:49:40.667Z,4.97
2023-01-30T22:52:08.862Z,4.07
2023-01-30T22:54:37.214Z,5.13
2023-01-30T22:57:05.565Z,4.97
2023-01-30T22:59:33.815Z,3.90
2023-01-30T23:02:02.276Z,4.70
2023-01-30T23:04:31.930Z,4.63
2023-01-30T23:07:00.674Z,4.57
2023-01-30T23:09:28.986Z,4.90
2023-01-30T23:12:16.193Z,4.70
2023-01-30T23:14:45.116Z,5.00
2023-01-30T23:17:30.816Z,4.53
2023-01-30T23:20:00.591Z,4.30
2023-01-30T23:22:29.703Z,5.03
2023-01-30T23:24:57.997Z,4.20
2023-01-30T23:27:26.336Z,4.30
2023-01-30T23:29:54.624Z,4.50
2023-01-30T23:32:23.767Z,4.90
2023-01-30T23:34:52.063Z,4.67
2023-01-30T23:37:42.802Z,4.80
2023-01-30T23:40:12.870Z,4.57
2023-01-30T23:42:41.117Z,4.30
2023-01-30T23:45:10.954Z,5.00
2023-01-30T23:47:39.281Z,4.10
2023-01-30T23:50:08.276Z,5.13
2023-01-30T23:52:37.842Z,4.83
2023-01-30T23:55:07.169Z,5.17
2023-01-30T23:57:35.398Z,4.80
